Time;durP1;ratioP1;P1;durP2;ratioP2;P2;SDS_P1;SDS_P2;PMS_P1;PMS_P2;Temp;Humidity;BMP_temperature;BMP_pressure;BME280_temperature;BME280_humidity;BME280_pressure;Samples;Min_cycle;Max_cycle;Signal;HPM_P1;HPM_P2
2023/09/26 00:09:05;;;;;;;12.17;4.10;;;14.10;98.30;;;;;;20814712;28;20243;-68
2023/09/26 00:19:07;;;;;;;5.90;4.23;;;13.90;98.50;;;;;;20828664;28;20229;-68
2023/09/26 00:29:09;;;;;;;7.37;4.77;;;14.00;98.80;;;;;;20845341;28;20237;-67
2023/09/26 00:39:11;;;;;;;7.10;4.40;;;14.00;99.20;;;;;;20844717;28;20600;-68
2023/09/26 00:49:14;;;;;;;6.50;5.17;;;14.00;99.20;;;;;;20826520;28;20251;-66
2023/09/26 00:59:16;;;;;;;7.27;4.63;;;13.90;99.40;;;;;;20842833;28;20258;-66
2023/09/26 01:09:17;;;;;;;6.30;4.40;;;13.80;99.70;;;;;;20842170;28;20299;-66
2023/09/26 01:19:19;;;;;;;5.23;4.17;;;13.70;99.70;;;;;;20841698;28;20315;-66
2023/09/26 01:29:21;;;;;;;5.67;4.30;;;13.60;99.60;;;;;;20840551;28;20362;-65
2023/09/26 01:39:23;;;;;;;5.37;4.30;;;13.40;99.60;;;;;;20877675;28;20238;-66
2023/09/26 01:49:26;;;;;;;5.10;4.10;;;13.40;99.70;;;;;;20888122;28;20404;-66
2023/09/26 01:59:27;;;;;;;5.80;4.60;;;13.40;99.70;;;;;;20838628;28;20246;-66
2023/09/26 02:09:29;;;;;;;4.83;4.07;;;13.40;99.90;;;;;;20837656;28;20557;-66
2023/09/26 02:19:31;;;;;;;6.60;4.80;;;13.30;99.80;;;;;;20837096;28;20245;-67
2023/09/26 02:29:33;;;;;;;7.60;4.47;;;13.30;99.80;;;;;;20835803;28;20232;-65
2023/09/26 02:39:34;;;;;;;5.33;4.20;;;13.20;99.80;;;;;;20834463;28;20238;-65
2023/09/26 02:49:36;;;;;;;6.13;4.60;;;13.10;99.80;;;;;;20834582;28;20225;-66
2023/09/26 02:59:38;;;;;;;6.23;4.27;;;13.10;99.80;;;;;;20833613;28;20240;-68
2023/09/26 03:09:39;;;;;;;5.17;4.33;;;13.10;99.80;;;;;;20815471;28;20236;-65
2023/09/26 03:19:44;;;;;;;6.23;4.57;;;13.00;99.80;;;;;;20832530;28;20327;-65
2023/09/26 03:29:49;;;;;;;6.43;4.53;;;12.90;99.80;;;;;;20831179;28;20281;-65
2023/09/26 03:39:51;;;;;;;6.97;4.43;;;12.90;99.90;;;;;;20830630;28;20339;-65
2023/09/26 03:49:53;;;;;;;5.97;4.67;;;12.70;99.80;;;;;;20860437;28;20211;-68
2023/09/26 03:59:55;;;;;;;5.20;4.40;;;12.60;99.80;;;;;;20829719;28;20728;-70
2023/09/26 04:09:57;;;;;;;5.73;4.70;;;12.40;99.70;;;;;;20829600;28;20211;-69
2023/09/26 04:19:59;;;;;;;6.67;4.40;;;12.30;99.70;;;;;;20829703;28;20297;-68
2023/09/26 04:30:02;;;;;;;10.83;5.80;;;12.30;99.70;;;;;;20829072;28;20236;-66
2023/09/26 04:40:10;;;;;;;14.73;6.47;;;12.40;99.80;;;;;;20828082;28;20258;-65
2023/09/26 04:50:12;;;;;;;8.30;5.20;;;12.30;99.90;;;;;;20827926;28;20212;-64
2023/09/26 05:00:18;;;;;;;10.00;5.77;;;12.40;99.90;;;;;;20837848;28;20239;-67
2023/09/26 05:10:20;;;;;;;14.77;7.93;;;12.40;99.90;;;;;;20842211;28;20236;-64
2023/09/26 05:20:23;;;;;;;13.80;7.17;;;12.40;99.90;;;;;;20841507;28;20289;-65
2023/09/26 05:30:25;;;;;;;14.87;8.87;;;12.50;99.90;;;;;;20839460;28;20232;-66
2023/09/26 05:40:27;;;;;;;21.67;10.07;;;12.60;99.90;;;;;;20838978;28;20323;-65
2023/09/26 05:50:29;;;;;;;18.50;10.37;;;12.60;99.90;;;;;;20839220;28;20217;-65
2023/09/26 06:00:31;;;;;;;21.63;9.17;;;12.50;99.90;;;;;;20838400;28;20321;-69
2023/09/26 06:10:33;;;;;;;16.63;9.13;;;12.70;99.90;;;;;;20836467;28;20632;-67
2023/09/26 06:20:38;;;;;;;20.53;9.27;;;12.70;99.90;;;;;;20836687;28;20631;-67
2023/09/26 06:30:40;;;;;;;28.90;12.13;;;12.70;99.90;;;;;;20836281;28;20239;-66
2023/09/26 06:40:41;;;;;;;28.63;12.97;;;12.70;99.90;;;;;;20834367;28;20240;-67
2023/09/26 06:50:43;;;;;;;32.07;15.47;;;12.90;99.90;;;;;;20834354;28;20247;-67
2023/09/26 07:00:45;;;;;;;40.50;17.73;;;13.20;99.90;;;;;;20832845;28;20299;-67
2023/09/26 07:10:47;;;;;;;32.87;15.17;;;13.40;99.90;;;;;;20832278;28;20207;-66
2023/09/26 07:20:48;;;;;;;65.17;24.77;;;13.60;99.90;;;;;;20876845;28;20254;-68
2023/09/26 07:30:53;;;;;;;47.60;21.57;;;13.50;99.90;;;;;;20890123;28;20801;-69
2023/09/26 07:40:55;;;;;;;32.33;16.23;;;13.30;99.90;;;;;;20841263;28;20236;-66
2023/09/26 07:50:57;;;;;;;21.27;10.90;;;13.70;99.90;;;;;;20830261;28;20638;-66
2023/09/26 08:01:00;;;;;;;15.43;7.43;;;13.90;99.90;;;;;;20829432;28;20264;-67
2023/09/26 08:11:08;;;;;;;19.30;6.97;;;14.00;99.90;;;;;;20829241;28;20240;-65
2023/09/26 08:21:10;;;;;;;16.97;8.80;;;14.30;99.90;;;;;;20811661;28;20239;-67
2023/09/26 08:31:15;;;;;;;15.60;8.73;;;14.80;99.90;;;;;;20832882;28;20236;-66
2023/09/26 08:41:18;;;;;;;25.93;13.97;;;15.30;99.90;;;;;;20843845;28;20294;-66
2023/09/26 08:51:21;;;;;;;27.00;15.63;;;15.70;99.90;;;;;;20895107;28;20200;-66
2023/09/26 09:01:23;;;;;;;22.57;14.17;;;16.00;99.40;;;;;;20848201;28;20332;-66
2023/09/26 09:11:32;;;;;;;40.67;20.57;;;16.40;99.10;;;;;;20842179;28;20234;-66
2023/09/26 09:21:34;;;;;;;27.97;15.53;;;16.80;98.80;;;;;;20841297;28;20243;-67
2023/09/26 09:31:36;;;;;;;23.53;11.77;;;17.10;98.40;;;;;;20840455;28;20602;-68
2023/09/26 09:41:41;;;;;;;36.40;17.87;;;17.40;98.20;;;;;;20838371;28;20282;-68
2023/09/26 09:51:45;;;;;;;30.33;16.77;;;17.80;98.00;;;;;;20838927;28;20269;-67
2023/09/26 10:01:49;;;;;;;64.13;32.20;;;18.10;97.70;;;;;;20838294;28;20240;-68
2023/09/26 10:11:53;;;;;;;16.03;8.00;;;18.40;97.50;;;;;;20837097;28;20262;-70
2023/09/26 10:22:17;;;;;;;16.00;6.00;;;18.70;97.30;;;;;;20836559;28;20246;-69
2023/09/26 10:32:32;;;;;;;13.30;4.60;;;19.00;96.90;;;;;;20835739;28;20278;-68
2023/09/26 10:42:35;;;;;;;5.60;4.57;;;19.30;96.70;;;;;;20817581;28;20231;-66
2023/09/26 10:52:57;;;;;;;10.80;4.27;;;19.60;96.20;;;;;;20834690;28;20569;-67
2023/09/26 11:02:59;;;;;;;7.17;4.40;;;19.90;95.80;;;;;;20833457;28;20228;-67
2023/09/26 11:13:03;;;;;;;11.43;4.10;;;20.10;95.20;;;;;;20832684;28;20208;-67
2023/09/26 11:23:05;;;;;;;6.30;4.07;;;20.40;94.80;;;;;;20839003;28;20237;-70
2023/09/26 11:33:06;;;;;;;9.37;4.47;;;20.60;94.30;;;;;;20877661;28;20239;-71
2023/09/26 11:43:08;;;;;;;7.90;5.20;;;20.90;93.80;;;;;;20875683;28;20240;-71
2023/09/26 11:53:13;;;;;;;7.80;4.57;;;21.20;93.10;;;;;;20912337;28;20307;-71
2023/09/26 12:03:16;;;;;;;11.60;4.50;;;21.40;92.60;;;;;;20911526;28;20228;-67
2023/09/26 12:13:18;;;;;;;11.00;4.23;;;21.70;91.90;;;;;;20911181;28;20621;-71
2023/09/26 12:23:23;;;;;;;7.40;4.30;;;22.10;91.10;;;;;;20911556;28;20274;-71
2023/09/26 12:33:25;;;;;;;7.00;4.53;;;22.30;90.20;;;;;;20910430;28;20242;-67
2023/09/26 12:43:26;;;;;;;7.10;3.70;;;22.50;88.60;;;;;;20909969;28;20235;-68
2023/09/26 12:53:28;;;;;;;10.87;5.20;;;22.70;87.30;;;;;;20867326;28;20588;-67
2023/09/26 13:03:30;;;;;;;9.67;3.90;;;22.80;85.60;;;;;;20905177;28;20327;-67
2023/09/26 13:13:32;;;;;;;7.10;3.83;;;22.80;84.70;;;;;;20909241;28;20262;-68
2023/09/26 13:23:34;;;;;;;194.87;23.13;;;22.90;83.70;;;;;;20921769;28;20580;-68
2023/09/26 13:33:36;;;;;;;12.63;4.23;;;23.00;82.90;;;;;;20922933;28;20764;-67
2023/09/26 13:43:37;;;;;;;8.47;4.20;;;23.10;82.00;;;;;;20921807;28;20322;-70
2023/09/26 13:53:40;;;;;;;10.47;4.10;;;;;;;;;;20921142;28;20218;-70
2023/09/26 14:03:42;;;;;;;11.30;3.83;;;;;;;;;;20920326;28;20319;-70
2023/09/26 14:13:44;;;;;;;11.40;6.07;;;;;;;;;;20919718;28;20572;-73
2023/09/26 14:23:47;;;;;;;4.57;3.20;;;;;;;;;;20918967;28;20717;-68
2023/09/26 14:33:48;;;;;;;21.15;3.38;;;23.30;81.30;;;;;;20917586;28;20239;-71
2023/09/26 14:43:50;;;;;;;4.68;3.00;;;26.50;67.80;;;;;;20917437;28;20231;-71
2023/09/26 14:53:52;;;;;;;6.18;3.40;;;26.60;66.30;;;;;;20916484;28;20220;-70
2023/09/26 15:03:54;;;;;;;7.57;3.75;;;27.70;62.50;;;;;;20916103;28;20235;-70
2023/09/26 15:13:56;;;;;;;6.57;3.50;;;;;;;;;;20915125;28;20686;-70
2023/09/26 15:23:58;;;;;;;4.80;3.40;;;25.80;64.20;;;;;;20914435;28;20212;-69
2023/09/26 15:33:59;;;;;;;5.50;3.60;;;25.60;64.50;;;;;;20888762;28;20604;-69
2023/09/26 15:44:01;;;;;;;6.27;3.30;;;24.70;64.80;;;;;;20867757;28;20759;-69
2023/09/26 15:54:03;;;;;;;6.47;3.37;;;24.10;65.40;;;;;;20881666;28;20216;-70
2023/09/26 16:04:05;;;;;;;7.07;5.53;;;23.70;66.50;;;;;;20830269;28;20208;-72
2023/09/26 16:14:09;;;;;;;6.63;3.37;;;;;;;;;;20829579;28;20720;-69
2023/09/26 16:24:11;;;;;;;6.47;3.60;;;23.50;67.80;;;;;;20829246;28;20209;-71
2023/09/26 16:34:13;;;;;;;8.13;5.03;;;22.90;71.70;;;;;;20828645;28;20232;-68
2023/09/26 16:44:15;;;;;;;8.33;4.53;;;22.70;72.80;;;;;;20828213;28;20702;-67
2023/09/26 16:54:18;;;;;;;8.37;4.83;;;22.40;74.00;;;;;;20852598;28;20201;-70
2023/09/26 17:04:20;;;;;;;5.87;4.13;;;22.10;75.20;;;;;;20881328;28;20212;-69
2023/09/26 17:14:23;;;;;;;6.17;4.17;;;21.80;76.60;;;;;;20912236;28;20196;-69
2023/09/26 17:24:25;;;;;;;7.07;4.67;;;21.40;78.30;;;;;;20841602;28;20573;-68
2023/09/26 17:34:27;;;;;;;9.77;4.73;;;21.20;79.70;;;;;;20837621;28;20240;-71
2023/09/26 17:44:29;;;;;;;12.80;5.57;;;20.90;81.30;;;;;;20839704;28;20676;-67
2023/09/26 17:54:30;;;;;;;9.03;5.93;;;20.60;83.10;;;;;;20839169;28;20205;-73
2023/09/26 18:04:32;;;;;;;11.60;6.30;;;20.40;84.40;;;;;;20835745;28;20244;-61
2023/09/26 18:14:35;;;;;;;10.63;6.43;;;20.20;86.30;;;;;;20837126;28;20260;-65
2023/09/26 18:24:36;;;;;;;9.87;6.90;;;19.90;88.30;;;;;;20834901;28;20295;-63
2023/09/26 18:34:38;;;;;;;8.97;5.90;;;19.80;89.80;;;;;;20835484;28;20324;-63
2023/09/26 18:44:40;;;;;;;11.47;5.37;;;19.60;90.70;;;;;;20835460;28;20213;-63
2023/09/26 18:54:42;;;;;;;7.33;5.97;;;19.30;91.60;;;;;;20834171;28;20565;-62
2023/09/26 19:04:43;;;;;;;9.27;6.83;;;19.20;92.50;;;;;;20816208;28;20296;-62
2023/09/26 19:14:47;;;;;;;14.93;7.40;;;19.00;93.40;;;;;;20816532;28;20282;-62
2023/09/26 19:24:48;;;;;;;7.47;6.40;;;18.90;94.00;;;;;;20862306;28;20744;-63
2023/09/26 19:34:50;;;;;;;16.20;9.30;;;18.60;94.80;;;;;;20859626;28;20278;-64
2023/09/26 19:44:52;;;;;;;11.33;8.63;;;18.50;95.40;;;;;;20909566;28;20262;-63
2023/09/26 19:54:54;;;;;;;9.57;5.87;;;18.40;96.00;;;;;;20917244;28;20238;-67
2023/09/26 20:04:55;;;;;;;9.37;6.47;;;18.10;96.60;;;;;;20909635;28;20210;-63
2023/09/26 20:14:57;;;;;;;9.43;6.73;;;18.00;97.30;;;;;;20909304;28;20609;-62
2023/09/26 20:24:59;;;;;;;8.77;6.20;;;17.80;97.70;;;;;;20909771;28;20217;-62
2023/09/26 20:35:01;;;;;;;8.87;6.50;;;17.70;98.10;;;;;;20925270;28;20578;-63
2023/09/26 20:45:03;;;;;;;12.97;6.60;;;17.50;98.60;;;;;;20870479;28;20222;-63
2023/09/26 20:55:05;;;;;;;7.23;6.30;;;17.40;98.90;;;;;;20923882;28;20239;-62
2023/09/26 21:05:07;;;;;;;8.83;6.47;;;17.30;99.40;;;;;;20923085;28;20301;-62
2023/09/26 21:15:10;;;;;;;8.90;7.00;;;17.20;99.60;;;;;;20922801;28;20257;-62
2023/09/26 21:25:11;;;;;;;9.03;6.47;;;17.10;99.90;;;;;;20921779;28;20232;-62
2023/09/26 21:35:13;;;;;;;8.90;6.47;;;16.90;99.90;;;;;;20920615;28;20306;-63
2023/09/26 21:45:17;;;;;;;11.13;6.53;;;16.80;99.90;;;;;;20920763;28;20208;-62
2023/09/26 21:55:19;;;;;;;8.80;6.77;;;16.60;99.90;;;;;;20919248;28;20282;-62
2023/09/26 22:05:21;;;;;;;10.23;6.70;;;16.50;99.90;;;;;;20921023;28;20214;-63
2023/09/26 22:15:23;;;;;;;10.87;6.70;;;16.30;99.90;;;;;;20920653;28;20235;-62
2023/09/26 22:25:25;;;;;;;8.60;6.73;;;16.20;99.90;;;;;;20919527;28;20226;-62
2023/09/26 22:35:26;;;;;;;12.03;6.30;;;16.20;99.90;;;;;;20918701;28;20326;-62
2023/09/26 22:45:28;;;;;;;8.53;6.40;;;16.00;99.90;;;;;;20918163;28;20204;-62
2023/09/26 22:55:30;;;;;;;8.47;6.73;;;15.90;99.90;;;;;;20916331;28;20232;-63
2023/09/26 23:05:38;;;;;;;10.10;7.07;;;15.90;99.90;;;;;;20896197;28;20235;-63
2023/09/26 23:15:40;;;;;;;10.97;6.70;;;16.00;99.90;;;;;;20856818;28;20238;-63
2023/09/26 23:25:42;;;;;;;14.10;7.00;;;15.80;99.90;;;;;;20832514;28;20215;-65
2023/09/26 23:35:44;;;;;;;10.23;6.93;;;15.70;99.90;;;;;;20831639;28;20279;-63
2023/09/26 23:45:46;;;;;;;8.23;6.90;;;15.70;99.90;;;;;;20831646;28;20211;-63
2023/09/26 23:55:48;;;;;;;8.70;6.90;;;15.60;99.90;;;;;;20830406;28;20232;-63
